sensor_id;sensor_type;location;lat;lon;timestamp;pressure;altitude;pressure_sealevel;temperature;humidity
63665;BME280;49820;33.966;73.390;2022-07-29T09:28:32;78889.19;;;20.99;100.00
63665;BME280;49820;33.966;73.390;2022-07-29T09:31:04;78870.88;;;21.59;100.00
63665;BME280;49820;33.966;73.390;2022-07-29T09:33:36;78859.25;;;22.30;100.00
63665;BME280;49820;33.966;73.390;2022-07-29T09:36:09;78854.50;;;22.41;100.00
63665;BME280;49820;33.966;73.390;2022-07-29T09:38:40;78870.19;;;23.09;100.00
63665;BME280;49820;33.966;73.390;2022-07-29T09:41:10;78855.59;;;22.57;100.00
63665;BME280;49820;33.966;73.390;2022-07-29T09:43:56;78876.63;;;23.69;100.00
63665;BME280;49820;33.966;73.390;2022-07-29T09:46:29;78866.09;;;23.74;100.00
63665;BME280;49820;33.966;73.390;2022-07-29T09:51:39;78868.16;;;24.05;100.00
63665;BME280;49820;33.966;73.390;2022-07-29T09:54:27;78876.06;;;24.30;100.00
63665;BME280;49820;33.966;73.390;2022-07-29T09:56:57;78868.13;;;24.37;100.00
63665;BME280;49820;33.966;73.390;2022-07-29T09:59:27;78862.03;;;23.41;100.00
63665;BME280;49820;33.966;73.390;2022-07-29T10:01:58;78874.50;;;22.49;100.00
63665;BME280;49820;33.966;73.390;2022-07-29T10:04:41;78871.78;;;22.49;100.00
63665;BME280;49820;33.966;73.390;2022-07-29T10:07:12;78857.16;;;22.20;100.00
63665;BME280;49820;33.966;73.390;2022-07-29T10:09:54;78862.88;;;22.95;100.00
63665;BME280;49820;33.966;73.390;2022-07-29T10:12:29;78863.28;;;22.65;100.00
63665;BME280;49820;33.966;73.390;2022-07-29T10:15:02;78850.53;;;21.94;100.00
63665;BME280;49820;33.966;73.390;2022-07-29T10:17:34;78853.06;;;22.08;100.00
63665;BME280;49820;33.966;73.390;2022-07-29T10:20:08;78860.63;;;21.72;100.00
63665;BME280;49820;33.966;73.390;2022-07-29T10:22:43;78844.38;;;21.23;100.00
63665;BME280;49820;33.966;73.390;2022-07-29T10:25:21;78841.66;;;21.11;100.00
63665;BME280;49820;33.966;73.390;2022-07-29T10:27:52;78848.31;;;21.01;100.00
63665;BME280;49820;33.966;73.390;2022-07-29T10:30:26;78820.50;;;21.01;100.00
63665;BME280;49820;33.966;73.390;2022-07-29T10:33:17;78822.91;;;21.66;100.00
63665;BME280;49820;33.966;73.390;2022-07-29T10:41:46;78822.06;;;22.71;100.00
63665;BME280;49820;33.966;73.390;2022-07-29T10:44:22;78825.16;;;22.65;100.00
63665;BME280;49820;33.966;73.390;2022-07-29T10:46:55;78804.41;;;22.60;100.00
63665;BME280;49820;33.966;73.390;2022-07-29T10:49:27;78805.97;;;22.23;100.00
63665;BME280;49820;33.966;73.390;2022-07-29T10:52:10;78804.22;;;22.06;100.00
63665;BME280;49820;33.966;73.390;2022-07-29T10:54:48;78803.34;;;21.87;100.00
63665;BME280;49820;33.966;73.390;2022-07-29T11:00:30;78793.28;;;21.26;100.00
63665;BME280;49820;33.966;73.390;2022-07-29T11:03:03;78772.25;;;21.01;100.00
63665;BME280;49820;33.966;73.390;2022-07-29T11:06:07;78775.09;;;20.99;100.00
63665;BME280;49820;33.966;73.390;2022-07-29T11:08:40;78785.81;;;21.14;100.00
63665;BME280;49820;33.966;73.390;2022-07-29T11:13:57;78770.31;;;21.59;100.00
63665;BME280;49820;33.966;73.390;2022-07-29T11:16:58;78762.97;;;21.45;100.00
63665;BME280;49820;33.966;73.390;2022-07-29T11:19:34;78779.00;;;21.38;100.00
63665;BME280;49820;33.966;73.390;2022-07-29T11:22:10;78775.16;;;21.46;100.00
63665;BME280;49820;33.966;73.390;2022-07-29T11:24:44;78766.41;;;21.56;100.00
63665;BME280;49820;33.966;73.390;2022-07-29T11:27:19;78762.19;;;22.27;100.00
63665;BME280;49820;33.966;73.390;2022-07-29T11:29:57;78765.84;;;22.00;100.00
63665;BME280;49820;33.966;73.390;2022-07-29T11:32:38;78760.81;;;21.47;100.00
63665;BME280;49820;33.966;73.390;2022-07-29T11:35:30;78741.81;;;21.35;100.00
63665;BME280;49820;33.966;73.390;2022-07-29T11:38:29;78765.81;;;21.19;100.00
63665;BME280;49820;33.966;73.390;2022-07-29T11:41:25;78758.84;;;20.86;100.00
63665;BME280;49820;33.966;73.390;2022-07-29T11:44:00;78760.34;;;20.96;100.00
63665;BME280;49820;33.966;73.390;2022-07-29T11:46:56;78749.00;;;20.68;100.00
63665;BME280;49820;33.966;73.390;2022-07-29T11:49:29;78737.22;;;20.84;100.00
63665;BME280;49820;33.966;73.390;2022-07-29T11:52:01;78739.22;;;21.56;100.00
63665;BME280;49820;33.966;73.390;2022-07-29T11:54:42;78726.38;;;21.78;100.00
63665;BME280;49820;33.966;73.390;2022-07-29T11:57:25;78734.09;;;21.62;100.00
63665;BME280;49820;33.966;73.390;2022-07-29T12:00:06;78722.06;;;21.70;100.00
63665;BME280;49820;33.966;73.390;2022-07-29T12:02:46;78716.19;;;21.89;100.00
63665;BME280;49820;33.966;73.390;2022-07-29T12:05:18;78722.75;;;21.47;100.00
63665;BME280;49820;33.966;73.390;2022-07-29T12:08:21;78722.72;;;21.70;100.00
63665;BME280;49820;33.966;73.390;2022-07-29T12:10:57;78725.81;;;21.64;100.00
63665;BME280;49820;33.966;73.390;2022-07-29T12:13:39;78711.63;;;21.85;100.00
63665;BME280;49820;33.966;73.390;2022-07-29T12:16:11;78689.91;;;21.28;100.00
63665;BME280;49820;33.966;73.390;2022-07-29T12:18:42;78708.09;;;21.76;100.00
63665;BME280;49820;33.966;73.390;2022-07-29T12:21:12;78723.81;;;21.86;100.00
63665;BME280;49820;33.966;73.390;2022-07-29T12:23:53;78718.00;;;21.58;100.00
63665;BME280;49820;33.966;73.390;2022-07-29T12:26:36;78715.94;;;21.93;100.00
63665;BME280;49820;33.966;73.390;2022-07-29T12:29:19;78701.47;;;21.73;100.00
63665;BME280;49820;33.966;73.390;2022-07-29T12:32:03;78711.03;;;21.61;100.00
63665;BME280;49820;33.966;73.390;2022-07-29T12:34:42;78699.00;;;21.12;100.00
63665;BME280;49820;33.966;73.390;2022-07-29T12:37:14;78725.38;;;21.13;100.00
63665;BME280;49820;33.966;73.390;2022-07-29T12:39:45;78710.31;;;21.04;100.00
63665;BME280;49820;33.966;73.390;2022-07-29T12:42:17;78705.63;;;20.79;100.00
63665;BME280;49820;33.966;73.390;2022-07-29T12:44:51;78727.16;;;20.70;100.00
63665;BME280;49820;33.966;73.390;2022-07-29T12:47:23;78700.56;;;20.24;100.00
63665;BME280;49820;33.966;73.390;2022-07-29T12:50:12;78720.75;;;20.40;100.00
63665;BME280;49820;33.966;73.390;2022-07-29T12:52:49;78694.69;;;20.19;100.00
63665;BME280;49820;33.966;73.390;2022-07-29T12:55:43;78722.03;;;20.28;100.00
63665;BME280;49820;33.966;73.390;2022-07-29T12:58:38;78730.00;;;20.07;100.00
63665;BME280;49820;33.966;73.390;2022-07-29T13:06:45;78740.31;;;19.54;100.00
63665;BME280;49820;33.966;73.390;2022-07-29T13:09:20;78734.28;;;19.26;100.00
63665;BME280;49820;33.966;73.390;2022-07-29T13:11:54;78744.22;;;19.17;100.00
63665;BME280;49820;33.966;73.390;2022-07-29T13:14:33;78733.47;;;19.02;100.00
63665;BME280;49820;33.966;73.390;2022-07-29T13:17:20;78746.91;;;19.04;100.00
63665;BME280;49820;33.966;73.390;2022-07-29T13:20:05;78751.94;;;18.85;100.00
63665;BME280;49820;33.966;73.390;2022-07-29T13:22:41;78739.25;;;18.81;100.00
63665;BME280;49820;33.966;73.390;2022-07-29T13:25:28;78715.16;;;18.62;100.00
63665;BME280;49820;33.966;73.390;2022-07-29T13:28:00;78724.38;;;18.67;100.00
63665;BME280;49820;33.966;73.390;2022-07-29T13:30:32;78724.69;;;18.61;100.00
63665;BME280;49820;33.966;73.390;2022-07-29T13:33:11;78713.41;;;18.57;100.00
63665;BME280;49820;33.966;73.390;2022-07-29T13:35:43;78733.88;;;18.66;100.00
63665;BME280;49820;33.966;73.390;2022-07-29T13:38:14;78741.16;;;18.70;100.00
63665;BME280;49820;33.966;73.390;2022-07-29T13:40:45;78746.03;;;18.67;100.00
63665;BME280;49820;33.966;73.390;2022-07-29T13:43:16;78734.56;;;18.52;100.00
63665;BME280;49820;33.966;73.390;2022-07-29T13:45:47;78727.25;;;18.36;100.00
63665;BME280;49820;33.966;73.390;2022-07-29T13:48:18;78710.88;;;18.25;100.00
63665;BME280;49820;33.966;73.390;2022-07-29T13:50:49;78738.44;;;18.43;100.00
63665;BME280;49820;33.966;73.390;2022-07-29T13:53:20;78755.22;;;18.45;100.00
63665;BME280;49820;33.966;73.390;2022-07-29T13:55:55;78766.09;;;18.30;100.00
63665;BME280;49820;33.966;73.390;2022-07-29T13:58:26;78736.75;;;18.08;100.00
63665;BME280;49820;33.966;73.390;2022-07-29T14:00:57;78756.56;;;18.17;100.00
63665;BME280;49820;33.966;73.390;2022-07-29T14:03:28;78760.06;;;18.15;100.00
63665;BME280;49820;33.966;73.390;2022-07-29T14:06:01;78766.84;;;18.14;100.00
63665;BME280;49820;33.966;73.390;2022-07-29T14:08:31;78730.34;;;17.86;100.00
63665;BME280;49820;33.966;73.390;2022-07-29T14:11:03;78775.63;;;18.00;100.00
63665;BME280;49820;33.966;73.390;2022-07-29T14:13:34;78759.91;;;17.90;100.00
63665;BME280;49820;33.966;73.390;2022-07-29T14:16:07;78760.06;;;17.86;100.00
63665;BME280;49820;33.966;73.390;2022-07-29T14:18:37;78763.34;;;17.88;100.00
63665;BME280;49820;33.966;73.390;2022-07-29T14:21:08;78773.22;;;17.94;100.00
63665;BME280;49820;33.966;73.390;2022-07-29T14:23:39;78747.78;;;17.74;100.00
63665;BME280;49820;33.966;73.390;2022-07-29T14:26:11;78747.41;;;17.68;100.00
63665;BME280;49820;33.966;73.390;2022-07-29T14:28:49;78753.28;;;17.58;100.00
63665;BME280;49820;33.966;73.390;2022-07-29T14:31:20;78778.19;;;17.75;100.00
63665;BME280;49820;33.966;73.390;2022-07-29T14:33:52;78783.19;;;17.68;100.00
63665;BME280;49820;33.966;73.390;2022-07-29T14:36:28;78788.03;;;17.66;100.00
63665;BME280;49820;33.966;73.390;2022-07-29T14:38:59;78784.56;;;17.52;100.00
63665;BME280;49820;33.966;73.390;2022-07-29T14:41:29;78796.66;;;17.53;100.00
63665;BME280;49820;33.966;73.390;2022-07-29T14:44:01;78802.25;;;17.49;100.00
63665;BME280;49820;33.966;73.390;2022-07-29T14:46:32;78805.91;;;17.59;100.00
63665;BME280;49820;33.966;73.390;2022-07-29T14:49:02;78768.50;;;17.19;100.00
63665;BME280;49820;33.966;73.390;2022-07-29T14:51:37;78778.56;;;17.35;100.00
63665;BME280;49820;33.966;73.390;2022-07-29T14:54:08;78783.44;;;17.33;100.00
63665;BME280;49820;33.966;73.390;2022-07-29T14:56:39;78803.94;;;17.42;100.00
63665;BME280;49820;33.966;73.390;2022-07-29T14:59:14;78789.50;;;17.33;100.00
63665;BME280;49820;33.966;73.390;2022-07-29T15:01:45;78824.41;;;17.52;100.00
63665;BME280;49820;33.966;73.390;2022-07-29T15:04:16;78814.81;;;17.40;100.00
63665;BME280;49820;33.966;73.390;2022-07-29T15:06:49;78830.19;;;17.44;100.00
63665;BME280;49820;33.966;73.390;2022-07-29T15:09:19;78799.25;;;17.26;100.00
63665;BME280;49820;33.966;73.390;2022-07-29T15:11:50;78803.06;;;17.31;100.00
63665;BME280;49820;33.966;73.390;2022-07-29T15:14:23;78808.38;;;17.33;100.00
63665;BME280;49820;33.966;73.390;2022-07-29T15:16:54;78824.31;;;17.39;100.00
63665;BME280;49820;33.966;73.390;2022-07-29T15:19:25;78833.16;;;17.38;100.00
63665;BME280;49820;33.966;73.390;2022-07-29T15:21:57;78807.22;;;17.13;100.00
63665;BME280;49820;33.966;73.390;2022-07-29T15:24:28;78777.50;;;16.99;100.00
63665;BME280;49820;33.966;73.390;2022-07-29T15:26:59;78827.53;;;17.27;100.00
63665;BME280;49820;33.966;73.390;2022-07-29T15:29:30;78834.66;;;17.35;100.00
63665;BME280;49820;33.966;73.390;2022-07-29T15:32:01;78841.25;;;17.38;100.00
63665;BME280;49820;33.966;73.390;2022-07-29T15:34:32;78822.03;;;17.14;100.00
63665;BME280;49820;33.966;73.390;2022-07-29T15:37:04;78837.97;;;17.21;100.00
63665;BME280;49820;33.966;73.390;2022-07-29T15:39:35;78832.53;;;17.06;100.00
63665;BME280;49820;33.966;73.390;2022-07-29T15:42:08;78845.88;;;17.10;100.00
63665;BME280;49820;33.966;73.390;2022-07-29T15:44:38;78809.66;;;16.88;100.00
63665;BME280;49820;33.966;73.390;2022-07-29T15:47:09;78822.72;;;16.98;100.00
63665;BME280;49820;33.966;73.390;2022-07-29T15:49:40;78823.31;;;17.01;100.00
63665;BME280;49820;33.966;73.390;2022-07-29T15:52:18;78832.91;;;17.12;100.00
63665;BME280;49820;33.966;73.390;2022-07-29T15:54:55;78841.50;;;17.17;100.00
63665;BME280;49820;33.966;73.390;2022-07-29T15:57:27;78858.09;;;17.24;100.00
63665;BME280;49820;33.966;73.390;2022-07-29T15:59:58;78866.50;;;17.32;100.00
63665;BME280;49820;33.966;73.390;2022-07-29T16:02:34;78864.22;;;17.22;100.00
63665;BME280;49820;33.966;73.390;2022-07-29T16:05:05;78870.19;;;17.25;100.00
63665;BME280;49820;33.966;73.390;2022-07-29T16:07:40;78867.56;;;17.23;100.00
63665;BME280;49820;33.966;73.390;2022-07-29T16:10:12;78841.81;;;16.94;100.00
63665;BME280;49820;33.966;73.390;2022-07-29T16:12:43;78856.16;;;17.05;100.00
63665;BME280;49820;33.966;73.390;2022-07-29T16:15:13;78871.09;;;17.19;100.00
63665;BME280;49820;33.966;73.390;2022-07-29T16:17:45;78877.63;;;17.24;100.00
63665;BME280;49820;33.966;73.390;2022-07-29T16:20:15;78855.03;;;17.00;100.00
63665;BME280;49820;33.966;73.390;2022-07-29T16:22:49;78866.53;;;17.15;100.00
63665;BME280;49820;33.966;73.390;2022-07-29T16:25:19;78861.09;;;17.01;100.00
63665;BME280;49820;33.966;73.390;2022-07-29T16:28:16;78879.81;;;17.05;100.00
63665;BME280;49820;33.966;73.390;2022-07-29T16:30:49;78880.41;;;16.91;100.00
63665;BME280;49820;33.966;73.390;2022-07-29T16:33:21;78867.81;;;16.85;100.00
63665;BME280;49820;33.966;73.390;2022-07-29T16:35:52;78883.50;;;16.97;100.00
63665;BME280;49820;33.966;73.390;2022-07-29T16:38:23;78844.56;;;16.61;100.00
63665;BME280;49820;33.966;73.390;2022-07-29T16:40:53;78880.09;;;16.82;100.00
63665;BME280;49820;33.966;73.390;2022-07-29T16:43:25;78885.50;;;16.82;100.00
63665;BME280;49820;33.966;73.390;2022-07-29T16:45:55;78870.03;;;16.64;100.00
63665;BME280;49820;33.966;73.390;2022-07-29T16:48:27;78870.63;;;16.66;100.00
63665;BME280;49820;33.966;73.390;2022-07-29T16:51:00;78878.63;;;16.68;100.00
63665;BME280;49820;33.966;73.390;2022-07-29T16:53:33;78858.91;;;16.38;100.00
63665;BME280;49820;33.966;73.390;2022-07-29T16:56:04;78881.97;;;16.52;100.00
63665;BME280;49820;33.966;73.390;2022-07-29T16:58:40;78887.44;;;16.50;100.00
63665;BME280;49820;33.966;73.390;2022-07-29T17:01:11;78887.44;;;16.50;100.00
63665;BME280;49820;33.966;73.390;2022-07-29T17:03:42;78867.19;;;16.34;100.00
63665;BME280;49820;33.966;73.390;2022-07-29T17:06:35;78878.44;;;16.39;100.00
63665;BME280;49820;33.966;73.390;2022-07-29T17:09:08;78873.56;;;16.27;100.00
63665;BME280;49820;33.966;73.390;2022-07-29T17:11:43;78852.13;;;16.06;100.00
63665;BME280;49820;33.966;73.390;2022-07-29T17:14:29;78873.06;;;16.22;100.00
63665;BME280;49820;33.966;73.390;2022-07-29T17:17:00;78878.13;;;16.30;100.00
63665;BME280;49820;33.966;73.390;2022-07-29T17:19:40;78869.69;;;16.22;100.00
63665;BME280;49820;33.966;73.390;2022-07-29T17:22:11;78874.94;;;16.26;100.00
63665;BME280;49820;33.966;73.390;2022-07-29T17:24:47;78880.41;;;16.24;100.00
63665;BME280;49820;33.966;73.390;2022-07-29T17:27:19;78862.09;;;16.10;100.00
63665;BME280;49820;33.966;73.390;2022-07-29T17:29:50;78872.72;;;16.14;100.00
63665;BME280;49820;33.966;73.390;2022-07-29T17:32:29;78848.47;;;15.97;100.00
63665;BME280;49820;33.966;73.390;2022-07-29T17:35:08;78852.78;;;15.90;100.00
63665;BME280;49820;33.966;73.390;2022-07-29T17:37:57;78866.38;;;16.05;100.00
63665;BME280;49820;33.966;73.390;2022-07-29T17:40:30;78836.84;;;15.84;100.00
63665;BME280;49820;33.966;73.390;2022-07-29T17:43:02;78849.66;;;15.83;100.00
63665;BME280;49820;33.966;73.390;2022-07-29T17:45:34;78861.28;;;15.96;100.00
63665;BME280;49820;33.966;73.390;2022-07-29T17:48:18;78867.88;;;15.99;100.00
63665;BME280;49820;33.966;73.390;2022-07-29T17:50:52;78850.91;;;15.86;100.00
63665;BME280;49820;33.966;73.390;2022-07-29T17:53:23;78838.47;;;15.77;100.00
63665;BME280;49820;33.966;73.390;2022-07-29T17:55:55;78855.97;;;15.94;100.00
63665;BME280;49820;33.966;73.390;2022-07-29T17:58:28;78828.50;;;15.73;100.00
63665;BME280;49820;33.966;73.390;2022-07-29T18:01:00;78823.13;;;15.56;100.00
63665;BME280;49820;33.966;73.390;2022-07-29T18:03:32;78848.84;;;15.70;100.00
63665;BME280;49820;33.966;73.390;2022-07-29T18:06:05;78839.03;;;15.62;100.00
63665;BME280;49820;33.966;73.390;2022-07-29T18:08:37;78863.19;;;15.81;100.00
63665;BME280;49820;33.966;73.390;2022-07-29T18:11:08;78862.25;;;15.89;100.00
63665;BME280;49820;33.966;73.390;2022-07-29T18:13:41;78846.31;;;15.83;100.00
63665;BME280;49820;33.966;73.390;2022-07-29T18:16:12;78856.78;;;15.91;100.00
63665;BME280;49820;33.966;73.390;2022-07-29T18:18:44;78827.22;;;15.72;100.00
63665;BME280;49820;33.966;73.390;2022-07-29T18:21:15;78862.16;;;15.91;100.00
63665;BME280;49820;33.966;73.390;2022-07-29T18:24:06;78863.66;;;15.88;100.00
63665;BME280;49820;33.966;73.390;2022-07-29T18:26:37;78840.50;;;15.76;100.00
63665;BME280;49820;33.966;73.390;2022-07-29T18:29:08;78856.38;;;16.01;100.00
63665;BME280;49820;33.966;73.390;2022-07-29T18:31:40;78831.31;;;16.05;100.00
63665;BME280;49820;33.966;73.390;2022-07-29T18:34:11;78853.03;;;16.34;100.00
63665;BME280;49820;33.966;73.390;2022-07-29T18:36:43;78851.91;;;16.46;100.00
63665;BME280;49820;33.966;73.390;2022-07-29T18:39:14;78855.00;;;16.52;100.00
63665;BME280;49820;33.966;73.390;2022-07-29T18:41:49;78837.84;;;16.43;100.00
63665;BME280;49820;33.966;73.390;2022-07-29T18:44:21;78835.56;;;16.33;100.00
63665;BME280;49820;33.966;73.390;2022-07-29T18:46:52;78831.56;;;16.32;100.00
63665;BME280;49820;33.966;73.390;2022-07-29T18:49:25;78826.50;;;16.24;100.00
63665;BME280;49820;33.966;73.390;2022-07-29T18:51:56;78821.84;;;16.22;100.00
63665;BME280;49820;33.966;73.390;2022-07-29T18:54:28;78819.91;;;16.21;100.00
63665;BME280;49820;33.966;73.390;2022-07-29T18:57:00;78838.09;;;16.37;100.00
63665;BME280;49820;33.966;73.390;2022-07-29T18:59:50;78783.56;;;16.03;100.00
63665;BME280;49820;33.966;73.390;2022-07-29T19:02:23;78810.31;;;16.24;100.00
63665;BME280;49820;33.966;73.390;2022-07-29T19:04:54;78801.50;;;16.09;100.00
63665;BME280;49820;33.966;73.390;2022-07-29T19:07:26;78794.41;;;16.01;100.00
63665;BME280;49820;33.966;73.390;2022-07-29T19:09:58;78814.50;;;16.21;100.00
63665;BME280;49820;33.966;73.390;2022-07-29T19:12:30;78813.59;;;16.26;100.00
63665;BME280;49820;33.966;73.390;2022-07-29T19:15:00;78791.88;;;16.14;100.00
63665;BME280;49820;33.966;73.390;2022-07-29T19:17:34;78790.72;;;16.09;100.00
63665;BME280;49820;33.966;73.390;2022-07-29T19:20:07;78752.88;;;15.79;100.00
63665;BME280;49820;33.966;73.390;2022-07-29T19:22:40;78815.38;;;16.32;100.00
63665;BME280;49820;33.966;73.390;2022-07-29T19:25:10;78803.88;;;16.33;100.00
63665;BME280;49820;33.966;73.390;2022-07-29T19:27:42;78802.09;;;16.28;100.00
63665;BME280;49820;33.966;73.390;2022-07-29T19:30:14;78733.19;;;15.66;100.00
63665;BME280;49820;33.966;73.390;2022-07-29T19:32:48;78821.94;;;16.20;100.00
63665;BME280;49820;33.966;73.390;2022-07-29T19:35:19;78814.25;;;16.10;100.00
63665;BME280;49820;33.966;73.390;2022-07-29T19:38:02;78817.53;;;16.13;100.00
63665;BME280;49820;33.966;73.390;2022-07-29T19:40:33;78832.06;;;16.20;100.00
63665;BME280;49820;33.966;73.390;2022-07-29T19:43:05;78821.84;;;16.22;100.00
63665;BME280;49820;33.966;73.390;2022-07-29T19:45:56;78827.06;;;16.26;100.00
63665;BME280;49820;33.966;73.390;2022-07-29T19:48:28;78791.78;;;15.99;100.00
63665;BME280;49820;33.966;73.390;2022-07-29T19:50:58;78798.75;;;16.11;100.00
63665;BME280;49820;33.966;73.390;2022-07-29T19:53:29;78799.47;;;16.09;100.00
63665;BME280;49820;33.966;73.390;2022-07-29T19:55:59;78784.03;;;15.91;100.00
63665;BME280;49820;33.966;73.390;2022-07-29T19:58:30;78809.44;;;16.13;100.00
63665;BME280;49820;33.966;73.390;2022-07-29T20:01:03;78811.38;;;16.14;100.00
63665;BME280;49820;33.966;73.390;2022-07-29T20:03:41;78788.75;;;16.07;100.00
63665;BME280;49820;33.966;73.390;2022-07-29T20:06:14;78786.91;;;16.03;100.00
63665;BME280;49820;33.966;73.390;2022-07-29T20:08:46;78810.41;;;16.22;100.00
63665;BME280;49820;33.966;73.390;2022-07-29T20:11:17;78795.78;;;16.17;100.00
63665;BME280;49820;33.966;73.390;2022-07-29T20:13:47;78781.59;;;16.01;100.00
63665;BME280;49820;33.966;73.390;2022-07-29T20:16:18;78805.50;;;16.10;100.00
63665;BME280;49820;33.966;73.390;2022-07-29T20:18:53;78803.28;;;15.97;100.00
63665;BME280;49820;33.966;73.390;2022-07-29T20:21:25;78801.44;;;15.94;100.00
63665;BME280;49820;33.966;73.390;2022-07-29T20:23:57;78794.16;;;15.90;100.00
63665;BME280;49820;33.966;73.390;2022-07-29T20:26:30;78790.72;;;15.92;100.00
63665;BME280;49820;33.966;73.390;2022-07-29T20:29:01;78742.41;;;15.54;100.00
63665;BME280;49820;33.966;73.390;2022-07-29T20:31:34;78798.00;;;15.95;100.00
63665;BME280;49820;33.966;73.390;2022-07-29T20:34:05;78792.13;;;15.91;100.00
63665;BME280;49820;33.966;73.390;2022-07-29T20:36:36;78729.31;;;15.44;100.00
63665;BME280;49820;33.966;73.390;2022-07-29T20:39:09;78784.88;;;15.87;100.00
63665;BME280;49820;33.966;73.390;2022-07-29T20:41:40;78762.47;;;15.74;100.00
63665;BME280;49820;33.966;73.390;2022-07-29T20:44:12;78763.47;;;15.83;100.00
63665;BME280;49820;33.966;73.390;2022-07-29T20:46:44;78740.53;;;15.68;100.00
63665;BME280;49820;33.966;73.390;2022-07-29T20:49:19;78725.19;;;15.64;100.00
63665;BME280;49820;33.966;73.390;2022-07-29T20:51:50;78700.03;;;15.36;100.00
63665;BME280;49820;33.966;73.390;2022-07-29T20:54:24;78771.88;;;15.92;100.00
63665;BME280;49820;33.966;73.390;2022-07-29T20:56:55;78763.47;;;15.83;100.00
63665;BME280;49820;33.966;73.390;2022-07-29T20:59:28;78762.72;;;15.85;100.00
63665;BME280;49820;33.966;73.390;2022-07-29T21:02:01;78749.66;;;15.75;100.00
63665;BME280;49820;33.966;73.390;2022-07-29T21:04:33;78761.59;;;15.80;100.00
63665;BME280;49820;33.966;73.390;2022-07-29T21:07:05;78756.69;;;15.84;100.00
63665;BME280;49820;33.966;73.390;2022-07-29T21:09:37;78734.41;;;15.69;100.00
63665;BME280;49820;33.966;73.390;2022-07-29T21:12:07;78720.47;;;15.64;100.00
63665;BME280;49820;33.966;73.390;2022-07-29T21:14:40;78746.31;;;15.74;100.00
63665;BME280;49820;33.966;73.390;2022-07-29T21:17:17;78711.59;;;15.49;100.00
63665;BME280;49820;33.966;73.390;2022-07-29T21:19:50;78728.44;;;15.67;100.00
63665;BME280;49820;33.966;73.390;2022-07-29T21:22:22;78731.88;;;15.65;100.00
63665;BME280;49820;33.966;73.390;2022-07-29T21:24:57;78733.03;;;15.70;100.00
63665;BME280;49820;33.966;73.390;2022-07-29T21:27:27;78687.88;;;15.37;100.00
63665;BME280;49820;33.966;73.390;2022-07-29T21:30:18;78731.97;;;15.80;100.00
63665;BME280;49820;33.966;73.390;2022-07-29T21:32:48;78738.66;;;15.81;100.00
63665;BME280;49820;33.966;73.390;2022-07-29T21:35:19;78732.44;;;15.84;100.00
63665;BME280;49820;33.966;73.390;2022-07-29T21:38:11;78742.22;;;15.92;100.00
63665;BME280;49820;33.966;73.390;2022-07-29T21:40:47;78738.00;;;15.97;100.00
63665;BME280;49820;33.966;73.390;2022-07-29T21:43:19;78720.22;;;15.87;100.00
63665;BME280;49820;33.966;73.390;2022-07-29T21:45:52;78726.56;;;15.96;100.00
63665;BME280;49820;33.966;73.390;2022-07-29T21:48:24;78700.53;;;15.74;100.00
63665;BME280;49820;33.966;73.390;2022-07-29T21:50:56;78725.50;;;15.89;100.00
63665;BME280;49820;33.966;73.390;2022-07-29T21:53:29;78718.31;;;15.84;100.00
63665;BME280;49820;33.966;73.390;2022-07-29T21:56:01;78726.97;;;15.86;100.00
63665;BME280;49820;33.966;73.390;2022-07-29T21:58:37;78729.66;;;15.86;100.00
63665;BME280;49820;33.966;73.390;2022-07-29T22:01:08;78706.75;;;15.71;100.00
63665;BME280;49820;33.966;73.390;2022-07-29T22:03:39;78726.97;;;15.86;100.00
63665;BME280;49820;33.966;73.390;2022-07-29T22:06:12;78724.88;;;15.89;100.00
63665;BME280;49820;33.966;73.390;2022-07-29T22:08:45;78724.75;;;15.91;100.00
63665;BME280;49820;33.966;73.390;2022-07-29T22:11:19;78716.69;;;15.91;100.00
63665;BME280;49820;33.966;73.390;2022-07-29T22:13:49;78722.66;;;15.93;100.00
63665;BME280;49820;33.966;73.390;2022-07-29T22:16:20;78713.75;;;15.97;100.00
63665;BME280;49820;33.966;73.390;2022-07-29T22:18:51;78739.91;;;16.15;100.00
63665;BME280;49820;33.966;73.390;2022-07-29T22:21:22;78708.44;;;15.95;100.00
63665;BME280;49820;33.966;73.390;2022-07-29T22:23:53;78734.44;;;16.17;100.00
63665;BME280;49820;33.966;73.390;2022-07-29T22:26:25;78734.91;;;16.22;100.00
63665;BME280;49820;33.966;73.390;2022-07-29T22:28:55;78687.34;;;15.99;100.00
63665;BME280;49820;33.966;73.390;2022-07-29T22:31:26;78717.94;;;16.25;100.00
63665;BME280;49820;33.966;73.390;2022-07-29T22:33:57;78695.19;;;16.06;100.00
63665;BME280;49820;33.966;73.390;2022-07-29T22:36:27;78697.06;;;16.09;100.00
63665;BME280;49820;33.966;73.390;2022-07-29T22:38:57;78699.50;;;16.15;100.00
63665;BME280;49820;33.966;73.390;2022-07-29T22:41:28;78702.19;;;16.15;100.00
63665;BME280;49820;33.966;73.390;2022-07-29T22:43:58;78730.34;;;16.35;100.00
63665;BME280;49820;33.966;73.390;2022-07-29T22:46:28;78715.56;;;16.34;100.00
63665;BME280;49820;33.966;73.390;2022-07-29T22:49:02;78693.94;;;16.19;100.00
63665;BME280;49820;33.966;73.390;2022-07-29T22:51:34;78662.28;;;16.03;100.00
63665;BME280;49820;33.966;73.390;2022-07-29T22:54:05;78676.81;;;16.10;100.00
63665;BME280;49820;33.966;73.390;2022-07-29T22:56:37;78672.88;;;16.07;100.00
63665;BME280;49820;33.966;73.390;2022-07-29T22:59:07;78710.06;;;16.36;100.00
63665;BME280;49820;33.966;73.390;2022-07-29T23:01:39;78694.97;;;16.26;100.00
63665;BME280;49820;33.966;73.390;2022-07-29T23:04:09;78706.72;;;16.35;100.00